createdAt,value
2023-03-18T00:02:10.588Z,3.08
2023-03-18T00:04:37.051Z,2.58
2023-03-18T00:07:03.748Z,3.33
2023-03-18T00:09:30.539Z,2.70
2023-03-18T00:11:57.013Z,2.47
2023-03-18T00:14:23.781Z,2.58
2023-03-18T00:16:50.519Z,2.47
2023-03-18T00:19:17.487Z,2.50
2023-03-18T00:21:44.302Z,2.60
2023-03-18T00:24:10.929Z,2.50
2023-03-18T00:26:37.384Z,2.78
2023-03-18T00:29:04.387Z,2.90
2023-03-18T00:31:30.916Z,2.28
2023-03-18T00:33:57.636Z,2.88
2023-03-18T00:36:24.250Z,2.50
2023-03-18T00:38:52.661Z,2.88
2023-03-18T00:41:19.210Z,3.50
2023-03-18T00:43:48.209Z,2.80
2023-03-18T00:46:20.898Z,3.33
2023-03-18T00:48:47.730Z,3.53
2023-03-18T00:51:15.398Z,3.28
2023-03-18T00:53:42.399Z,3.28
2023-03-18T00:56:09.106Z,2.75
2023-03-18T00:58:36.099Z,2.80
2023-03-18T01:01:05.674Z,3.42
2023-03-18T01:03:32.430Z,3.28
2023-03-18T01:06:03.160Z,3.45
2023-03-18T01:08:31.153Z,2.92
2023-03-18T01:10:58.188Z,2.83
2023-03-18T01:13:25.213Z,3.37
2023-03-18T01:15:52.799Z,2.78
2023-03-18T01:18:19.493Z,2.58
2023-03-18T01:20:46.192Z,2.58
2023-03-18T01:25:42.247Z,2.67
2023-03-18T01:28:09.108Z,2.40
2023-03-18T01:30:35.727Z,2.80
2023-03-18T01:33:05.328Z,3.13
2023-03-18T01:35:33.873Z,2.78
2023-03-18T01:40:26.806Z,3.55
2023-03-18T01:43:13.631Z,3.15
2023-03-18T01:45:44.501Z,3.03
2023-03-18T01:48:17.254Z,3.05
2023-03-18T01:50:46.575Z,3.35
2023-03-18T01:53:16.672Z,3.03
2023-03-18T01:55:45.809Z,2.70
2023-03-18T01:58:23.989Z,2.78
2023-03-18T02:00:57.288Z,3.42
2023-03-18T02:03:26.051Z,3.30
2023-03-18T02:05:53.565Z,2.55
2023-03-18T02:08:20.457Z,2.78
2023-03-18T02:10:47.763Z,2.55
2023-03-18T02:13:16.178Z,2.85
2023-03-18T02:15:51.702Z,3.00
2023-03-18T02:18:24.031Z,3.17
2023-03-18T02:21:08.236Z,2.78
2023-03-18T02:23:49.807Z,3.20
2023-03-18T02:26:45.120Z,3.30
2023-03-18T02:29:15.338Z,2.58
2023-03-18T02:31:49.923Z,2.75
2023-03-18T02:34:26.422Z,2.20
2023-03-18T02:36:55.482Z,2.92
2023-03-18T02:39:22.255Z,2.60
2023-03-18T02:44:19.529Z,2.35
2023-03-18T02:47:20.581Z,2.35
2023-03-18T02:49:47.068Z,2.20
2023-03-18T02:52:14.682Z,2.78
2023-03-18T02:54:41.253Z,2.05
2023-03-18T02:57:08.098Z,2.03
2023-03-18T02:59:36.366Z,2.28
2023-03-18T03:02:03.395Z,2.15
2023-03-18T03:04:30.057Z,2.03
2023-03-18T03:06:59.018Z,2.03
2023-03-18T03:09:36.244Z,1.77
2023-03-18T03:12:06.317Z,1.17
2023-03-18T03:14:35.010Z,1.70
2023-03-18T03:17:02.330Z,1.48
2023-03-18T03:19:29.813Z,1.33
2023-03-18T03:21:56.488Z,1.63
2023-03-18T03:24:25.193Z,1.30
2023-03-18T03:26:51.845Z,1.38
2023-03-18T03:29:18.524Z,1.52
2023-03-18T03:31:45.131Z,1.42
2023-03-18T03:34:11.750Z,1.50
2023-03-18T03:36:38.285Z,1.70
2023-03-18T03:39:04.785Z,1.83
2023-03-18T03:41:34.854Z,1.20
2023-03-18T03:44:01.589Z,1.10
2023-03-18T03:46:28.329Z,1.30
2023-03-18T03:48:54.920Z,1.52
2023-03-18T03:51:21.443Z,1.73
2023-03-18T03:53:48.086Z,1.65
2023-03-18T03:56:15.262Z,2.20
2023-03-18T03:58:41.813Z,2.30
2023-03-18T04:01:08.417Z,1.48
2023-03-18T04:03:35.136Z,1.25
2023-03-18T04:06:05.635Z,1.20
2023-03-18T04:08:32.966Z,1.40
2023-03-18T04:10:59.677Z,1.40
2023-03-18T04:13:26.781Z,1.30
2023-03-18T04:15:54.029Z,1.27
2023-03-18T04:18:21.120Z,1.27
2023-03-18T04:20:48.044Z,1.27
2023-03-18T04:23:37.783Z,1.33
2023-03-18T04:26:04.734Z,1.45
2023-03-18T04:28:32.984Z,1.58
2023-03-18T04:30:59.955Z,1.20
2023-03-18T04:33:26.718Z,0.98
2023-03-18T04:35:53.673Z,0.88
2023-03-18T04:38:20.233Z,1.40
2023-03-18T04:40:50.064Z,0.90
2023-03-18T04:43:17.133Z,1.30
2023-03-18T04:45:45.520Z,1.05
2023-03-18T04:48:13.364Z,1.30
2023-03-18T04:50:41.764Z,1.08
2023-03-18T04:53:13.570Z,1.17
2023-03-18T04:55:40.446Z,1.17
2023-03-18T04:58:09.965Z,0.90
2023-03-18T05:00:41.562Z,0.80
2023-03-18T05:03:29.332Z,0.80
2023-03-18T05:05:56.258Z,0.85
2023-03-18T05:08:31.690Z,0.80
2023-03-18T05:11:00.297Z,0.80
2023-03-18T05:13:27.186Z,0.88
2023-03-18T05:15:53.708Z,1.00
2023-03-18T05:18:22.240Z,1.02
2023-03-18T05:20:51.583Z,0.80
2023-03-18T05:23:19.100Z,0.80
2023-03-18T05:25:53.196Z,1.13
2023-03-18T05:28:22.081Z,1.00
2023-03-18T05:31:07.240Z,0.90
2023-03-18T05:33:37.172Z,1.10
2023-03-18T05:36:04.978Z,1.10
2023-03-18T05:38:36.476Z,1.60
2023-03-18T05:41:03.273Z,1.00
2023-03-18T05:43:37.077Z,1.00
2023-03-18T05:46:03.772Z,1.30
2023-03-18T05:48:55.196Z,1.45
2023-03-18T05:51:24.845Z,1.08
2023-03-18T05:53:51.703Z,1.42
2023-03-18T05:56:25.475Z,1.10
2023-03-18T05:58:56.517Z,0.95
2023-03-18T06:01:29.729Z,0.93
2023-03-18T06:03:56.362Z,1.05
2023-03-18T06:06:22.904Z,0.85
2023-03-18T06:08:49.534Z,0.95
2023-03-18T06:11:16.164Z,1.33
2023-03-18T06:13:42.892Z,1.02
2023-03-18T06:16:09.762Z,1.75
2023-03-18T06:18:36.537Z,1.33
2023-03-18T06:21:04.382Z,1.45
2023-03-18T06:23:30.969Z,2.33
2023-03-18T06:25:57.539Z,1.25
2023-03-18T06:28:31.295Z,1.60
2023-03-18T06:31:01.455Z,1.63
2023-03-18T06:33:28.537Z,1.20
2023-03-18T06:35:55.530Z,2.17
2023-03-18T06:38:22.596Z,1.50
2023-03-18T06:40:49.582Z,1.63
2023-03-18T06:43:16.163Z,1.40
2023-03-18T06:48:10.924Z,1.02
2023-03-18T06:50:41.254Z,1.23
2023-03-18T06:53:13.895Z,1.40
2023-03-18T06:55:41.927Z,1.02
2023-03-18T06:58:08.552Z,1.48
2023-03-18T07:00:46.228Z,1.00
2023-03-18T07:03:18.515Z,1.58
2023-03-18T07:05:45.090Z,1.27
2023-03-18T07:08:11.768Z,1.27
2023-03-18T07:10:38.392Z,1.52
2023-03-18T07:13:10.674Z,1.10
2023-03-18T07:15:40.838Z,1.00
2023-03-18T07:18:07.539Z,1.45
2023-03-18T07:20:34.147Z,1.10
2023-03-18T07:23:00.742Z,1.40
2023-03-18T07:25:28.037Z,0.70
2023-03-18T07:27:54.638Z,1.38
2023-03-18T07:30:21.195Z,0.85
2023-03-18T07:32:47.812Z,0.95
2023-03-18T07:35:15.548Z,0.90
2023-03-18T07:37:42.274Z,0.88
2023-03-18T07:40:10.048Z,0.88
2023-03-18T07:42:36.598Z,1.17
2023-03-18T07:45:03.248Z,1.10
2023-03-18T07:47:29.783Z,0.90
2023-03-18T07:49:56.335Z,1.40
2023-03-18T07:52:22.938Z,1.10
2023-03-18T07:54:49.496Z,0.85
2023-03-18T07:57:16.024Z,0.98
2023-03-18T07:59:42.548Z,1.00
2023-03-18T08:02:12.818Z,1.35
2023-03-18T08:04:39.306Z,1.00
2023-03-18T08:07:06.070Z,0.82
2023-03-18T08:09:32.655Z,0.95
2023-03-18T08:11:59.124Z,1.30
2023-03-18T08:14:25.896Z,1.25
2023-03-18T08:16:52.392Z,1.00
2023-03-18T08:19:18.850Z,1.05
2023-03-18T08:21:45.343Z,1.00
2023-03-18T08:24:11.976Z,0.85
2023-03-18T08:26:38.518Z,1.08
2023-03-18T08:29:05.215Z,1.05
2023-03-18T08:31:31.974Z,0.70
2023-03-18T08:33:58.810Z,0.80
2023-03-18T08:36:25.555Z,1.17
2023-03-18T08:38:52.060Z,0.90
2023-03-18T08:41:18.516Z,1.02
2023-03-18T08:43:45.074Z,0.82
2023-03-18T08:46:11.909Z,0.90
2023-03-18T08:48:38.578Z,1.23
2023-03-18T08:51:06.522Z,0.77
2023-03-18T08:53:32.995Z,0.85
2023-03-18T08:56:01.343Z,0.98
2023-03-18T08:58:29.482Z,1.10
2023-03-18T09:00:56.184Z,1.38
2023-03-18T09:03:22.799Z,1.00
2023-03-18T09:05:49.307Z,1.08
2023-03-18T09:08:15.886Z,2.28
2023-03-18T09:10:45.660Z,1.40
2023-03-18T09:13:12.231Z,1.23
2023-03-18T09:15:38.964Z,1.08
2023-03-18T09:18:11.532Z,0.90
2023-03-18T09:20:39.762Z,0.82
2023-03-18T09:23:07.307Z,1.13
2023-03-18T09:25:34.121Z,1.50
2023-03-18T09:28:01.401Z,1.17
2023-03-18T09:30:28.437Z,2.13
2023-03-18T09:32:55.029Z,1.30
2023-03-18T09:35:21.599Z,1.65
2023-03-18T09:37:48.074Z,1.38
2023-03-18T09:40:27.736Z,1.40
2023-03-18T09:43:19.009Z,1.17
2023-03-18T09:46:03.436Z,1.10
2023-03-18T09:48:56.648Z,1.63
2023-03-18T09:51:53.173Z,1.00
2023-03-18T09:54:31.456Z,1.70
2023-03-18T09:56:57.998Z,1.27
2023-03-18T09:59:30.741Z,1.58
2023-03-18T10:01:59.126Z,2.03
2023-03-18T10:04:28.815Z,1.63
2023-03-18T10:07:11.580Z,1.40
2023-03-18T10:09:54.117Z,1.08
2023-03-18T10:12:30.474Z,2.20
2023-03-18T10:15:17.590Z,1.60
2023-03-18T10:18:02.580Z,1.60
2023-03-18T10:20:52.421Z,1.65
2023-03-18T10:23:30.779Z,1.63
2023-03-18T10:26:16.535Z,1.38
2023-03-18T10:29:06.968Z,2.63
2023-03-18T10:31:47.750Z,2.20
2023-03-18T10:34:25.275Z,1.50
2023-03-18T10:37:17.154Z,1.95
2023-03-18T10:39:43.832Z,2.20
2023-03-18T10:42:23.837Z,1.40
2023-03-18T10:44:51.761Z,2.55
2023-03-18T10:47:36.875Z,2.47
2023-03-18T10:50:04.790Z,2.78
2023-03-18T10:52:37.909Z,3.67
2023-03-18T10:55:11.477Z,1.27
2023-03-18T10:57:38.103Z,1.10
2023-03-18T11:00:05.599Z,1.80
2023-03-18T11:02:38.822Z,0.98
2023-03-18T11:05:23.363Z,1.30
2023-03-18T11:07:58.899Z,1.15
2023-03-18T11:10:28.631Z,0.90
2023-03-18T11:12:58.623Z,0.80
2023-03-18T11:15:25.181Z,1.10
2023-03-18T11:17:52.656Z,1.25
2023-03-18T11:20:32.249Z,1.00
2023-03-18T11:23:06.307Z,1.58
2023-03-18T11:25:32.894Z,1.23
2023-03-18T11:28:04.628Z,0.63
2023-03-18T11:30:45.022Z,1.10
2023-03-18T11:33:11.830Z,1.63
2023-03-18T11:35:53.233Z,1.00
2023-03-18T11:38:29.026Z,0.85
2023-03-18T11:41:13.646Z,1.63
2023-03-18T11:43:55.689Z,1.27
2023-03-18T11:46:30.212Z,1.67
2023-03-18T11:49:00.054Z,1.48
2023-03-18T11:51:42.805Z,1.02
2023-03-18T11:54:29.633Z,1.40
2023-03-18T11:57:02.837Z,1.83
2023-03-18T11:59:47.733Z,1.42
2023-03-18T12:02:48.509Z,1.00
2023-03-18T12:05:42.447Z,1.35
2023-03-18T12:08:22.054Z,1.08
2023-03-18T12:11:03.777Z,0.82
2023-03-18T12:14:01.855Z,1.00
2023-03-18T12:16:44.004Z,1.38
2023-03-18T12:19:48.227Z,2.70
2023-03-18T12:22:50.048Z,1.00
2023-03-18T12:25:34.567Z,1.98
2023-03-18T12:28:01.140Z,1.40
2023-03-18T12:30:36.355Z,1.60
2023-03-18T12:33:30.096Z,1.63
2023-03-18T12:36:04.559Z,1.45
2023-03-18T12:39:01.953Z,1.90
2023-03-18T12:41:44.881Z,1.48
2023-03-18T12:44:40.357Z,2.90
2023-03-18T12:47:16.122Z,1.38
2023-03-18T12:49:46.575Z,2.05
2023-03-18T12:52:19.141Z,1.40
2023-03-18T12:54:55.907Z,1.33
2023-03-18T12:57:48.413Z,1.42
2023-03-18T13:00:39.832Z,1.17
2023-03-18T13:03:35.148Z,1.15
2023-03-18T13:06:10.292Z,2.00
2023-03-18T13:08:59.442Z,1.90
2023-03-18T13:11:34.205Z,1.60
2023-03-18T13:14:07.223Z,1.63
2023-03-18T13:16:36.670Z,1.50
2023-03-18T13:19:04.706Z,1.77
2023-03-18T13:21:36.018Z,1.23
2023-03-18T13:24:23.711Z,1.73
2023-03-18T13:29:56.894Z,1.10
2023-03-18T13:32:40.716Z,1.55
2023-03-18T13:35:21.965Z,1.77
2023-03-18T13:38:39.054Z,2.03
2023-03-18T13:41:08.522Z,1.60
2023-03-18T13:43:39.489Z,1.40
2023-03-18T13:46:19.961Z,1.40
2023-03-18T13:48:46.942Z,1.33
2023-03-18T13:51:39.484Z,1.67
2023-03-18T13:54:14.920Z,1.90
2023-03-18T13:56:41.458Z,1.58
2023-03-18T13:59:33.587Z,1.80
2023-03-18T14:02:37.628Z,2.20
2023-03-18T14:05:35.092Z,2.00
2023-03-18T14:10:32.578Z,1.35
2023-03-18T14:13:28.156Z,2.20
2023-03-18T14:15:57.420Z,1.40
2023-03-18T14:18:27.913Z,1.75
2023-03-18T14:21:00.222Z,1.80
2023-03-18T14:23:29.549Z,1.77
2023-03-18T14:26:07.575Z,2.22
2023-03-18T14:28:45.363Z,1.88
2023-03-18T14:31:20.295Z,1.92
2023-03-18T14:34:00.196Z,2.45
2023-03-18T14:36:39.683Z,2.35
2023-03-18T14:39:07.427Z,1.63
2023-03-18T14:41:41.269Z,1.80
2023-03-18T14:44:29.273Z,2.05
2023-03-18T14:46:59.811Z,2.20
2023-03-18T14:49:51.216Z,2.47
2023-03-18T14:52:38.769Z,1.80
2023-03-18T14:55:18.124Z,1.70
2023-03-18T14:57:44.946Z,2.55
2023-03-18T15:00:16.104Z,1.55
2023-03-18T15:02:44.435Z,1.30
2023-03-18T15:05:16.318Z,2.47
2023-03-18T15:07:43.817Z,2.20
2023-03-18T15:10:14.177Z,1.67
2023-03-18T15:12:40.973Z,1.40
2023-03-18T15:15:15.322Z,1.35
2023-03-18T15:17:47.684Z,1.33
2023-03-18T15:20:15.184Z,1.67
2023-03-18T15:22:42.427Z,3.25
2023-03-18T15:25:18.469Z,1.95
2023-03-18T15:27:45.019Z,2.20
2023-03-18T15:30:28.872Z,1.80
2023-03-18T15:33:02.976Z,2.08
2023-03-18T15:35:30.558Z,1.98
2023-03-18T15:38:09.368Z,2.20
2023-03-18T15:40:49.358Z,1.65
2023-03-18T15:43:28.724Z,1.75
2023-03-18T15:46:00.769Z,1.75
2023-03-18T15:48:39.586Z,1.83
2023-03-18T15:51:23.119Z,2.20
2023-03-18T15:53:53.561Z,1.60
2023-03-18T15:56:27.174Z,1.85
2023-03-18T15:58:58.569Z,1.60
2023-03-18T16:01:25.129Z,1.88
2023-03-18T16:03:51.663Z,1.80
2023-03-18T16:06:18.194Z,1.85
2023-03-18T16:08:44.703Z,2.30
2023-03-18T16:11:13.829Z,1.30
2023-03-18T16:13:40.649Z,1.60
2023-03-18T16:16:15.878Z,1.70
2023-03-18T16:18:42.544Z,1.55
2023-03-18T16:21:13.052Z,1.05
2023-03-18T16:23:39.576Z,4.05
2023-03-18T16:26:11.799Z,1.52
2023-03-18T16:28:38.288Z,1.63
2023-03-18T16:31:04.889Z,1.38
2023-03-18T16:33:32.499Z,1.80
2023-03-18T16:36:01.485Z,1.60
2023-03-18T16:38:38.318Z,0.77
2023-03-18T16:41:05.102Z,0.98
2023-03-18T16:43:32.114Z,1.00
2023-03-18T16:46:01.259Z,0.90
2023-03-18T16:48:28.024Z,0.98
2023-03-18T16:50:56.838Z,1.10
2023-03-18T16:53:26.605Z,0.80
2023-03-18T16:55:59.319Z,1.08
2023-03-18T16:58:30.297Z,0.80
2023-03-18T17:00:56.899Z,0.80
2023-03-18T17:03:23.459Z,1.67
2023-03-18T17:05:50.715Z,0.95
2023-03-18T17:08:21.033Z,1.10
2023-03-18T17:10:50.696Z,1.33
2023-03-18T17:13:21.282Z,0.80
2023-03-18T17:15:47.780Z,0.98
2023-03-18T17:18:17.124Z,0.93
2023-03-18T17:20:44.716Z,1.00
2023-03-18T17:23:16.461Z,0.82
2023-03-18T17:25:47.402Z,0.90
2023-03-18T17:28:23.873Z,0.88
2023-03-18T17:30:50.817Z,1.92
2023-03-18T17:33:22.274Z,0.75
2023-03-18T17:35:48.788Z,0.90
2023-03-18T17:38:15.766Z,0.70
2023-03-18T17:40:42.532Z,0.77
2023-03-18T17:43:17.807Z,0.73
2023-03-18T17:45:44.621Z,0.80
2023-03-18T17:48:17.490Z,0.90
2023-03-18T17:50:44.142Z,1.05
2023-03-18T17:53:26.825Z,1.30
2023-03-18T17:55:54.214Z,0.90
2023-03-18T17:58:22.778Z,1.15
2023-03-18T18:00:50.060Z,1.35
2023-03-18T18:03:25.672Z,2.50
2023-03-18T18:05:54.173Z,1.77
2023-03-18T18:08:22.302Z,1.30
2023-03-18T18:13:18.630Z,1.27
2023-03-18T18:15:46.703Z,1.20
2023-03-18T18:20:40.630Z,0.88
2023-03-18T18:23:07.128Z,1.17
2023-03-18T18:25:33.916Z,0.80
2023-03-18T18:28:00.640Z,0.77
2023-03-18T18:30:27.187Z,1.15
2023-03-18T18:32:54.161Z,1.00
2023-03-18T18:35:22.627Z,0.90
2023-03-18T18:37:49.287Z,0.98
2023-03-18T18:40:17.084Z,1.00
2023-03-18T18:42:43.959Z,0.88
2023-03-18T18:45:17.326Z,0.88
2023-03-18T18:47:43.928Z,0.63
2023-03-18T18:50:20.936Z,0.50
2023-03-18T18:52:47.590Z,0.80
2023-03-18T18:55:14.205Z,0.88
2023-03-18T18:57:41.994Z,0.95
2023-03-18T19:00:22.370Z,1.13
2023-03-18T19:02:50.990Z,0.98
2023-03-18T19:05:17.809Z,1.40
2023-03-18T19:07:45.080Z,5.22
2023-03-18T19:10:15.182Z,11.70
2023-03-18T19:12:42.736Z,7.88
2023-03-18T19:15:10.316Z,6.90
2023-03-18T19:17:37.912Z,6.50
2023-03-18T19:20:28.491Z,9.88
2023-03-18T19:22:55.091Z,14.68
2023-03-18T19:25:21.760Z,10.43
2023-03-18T19:27:48.269Z,9.75
2023-03-18T19:30:23.884Z,5.22
2023-03-18T19:32:50.973Z,3.45
2023-03-18T19:35:17.648Z,2.85
2023-03-18T19:37:47.319Z,3.67
2023-03-18T19:40:23.802Z,2.75
2023-03-18T19:42:50.387Z,2.22
2023-03-18T19:45:17.117Z,2.17
2023-03-18T19:47:43.866Z,2.60
2023-03-18T19:50:21.079Z,2.45
2023-03-18T19:52:48.072Z,1.65
2023-03-18T19:55:15.676Z,1.90
2023-03-18T19:57:47.358Z,2.05
2023-03-18T20:00:19.666Z,2.58
2023-03-18T20:02:46.208Z,2.28
2023-03-18T20:05:21.490Z,1.80
2023-03-18T20:07:48.458Z,2.30
2023-03-18T20:10:15.278Z,2.47
2023-03-18T20:12:49.899Z,2.60
2023-03-18T20:15:19.549Z,2.08
2023-03-18T20:17:50.444Z,2.60
2023-03-18T20:20:18.396Z,3.80
2023-03-18T20:22:52.067Z,3.10
2023-03-18T20:25:30.403Z,2.30
2023-03-18T20:27:57.121Z,2.67
2023-03-18T20:30:27.896Z,2.55
2023-03-18T20:32:54.909Z,3.47
2023-03-18T20:35:23.337Z,2.95
2023-03-18T20:37:50.105Z,2.92
2023-03-18T20:40:23.701Z,2.20
2023-03-18T20:42:51.488Z,3.47
2023-03-18T20:45:18.563Z,3.50
2023-03-18T20:47:48.828Z,1.52
2023-03-18T20:50:20.519Z,2.10
2023-03-18T20:52:48.308Z,2.28
2023-03-18T20:55:24.855Z,3.28
2023-03-18T20:57:52.729Z,2.03
2023-03-18T21:00:22.639Z,2.45
2023-03-18T21:02:51.441Z,2.53
2023-03-18T21:05:19.207Z,3.03
2023-03-18T21:07:46.392Z,2.20
2023-03-18T21:10:22.400Z,4.63
2023-03-18T21:12:49.738Z,5.65
2023-03-18T21:15:25.648Z,5.10
2023-03-18T21:17:52.461Z,4.78
2023-03-18T21:20:29.296Z,5.93
2023-03-18T21:22:55.928Z,6.47
2023-03-18T21:25:24.577Z,9.68
2023-03-18T21:27:51.884Z,12.98
2023-03-18T21:30:20.386Z,13.65
2023-03-18T21:32:47.124Z,10.13
2023-03-18T21:35:19.925Z,7.18
2023-03-18T21:37:46.585Z,7.47
2023-03-18T21:40:15.426Z,7.05
2023-03-18T21:42:42.246Z,5.10
2023-03-18T21:45:12.111Z,4.38
2023-03-18T21:47:38.806Z,3.00
2023-03-18T21:50:06.166Z,3.40
2023-03-18T21:52:36.831Z,3.75
2023-03-18T21:55:05.722Z,2.88
2023-03-18T21:57:32.266Z,3.28
2023-03-18T21:59:58.909Z,3.13
2023-03-18T22:02:27.485Z,2.97
2023-03-18T22:04:55.132Z,2.75
2023-03-18T22:07:23.221Z,2.83
2023-03-18T22:12:26.967Z,2.88
2023-03-18T22:14:54.372Z,2.70
2023-03-18T22:17:39.144Z,3.13
2023-03-18T22:20:06.269Z,2.58
2023-03-18T22:22:36.396Z,2.20
2023-03-18T22:25:03.264Z,2.53
2023-03-18T22:27:31.507Z,3.10
2023-03-18T22:32:37.552Z,2.40
2023-03-18T22:35:07.389Z,2.50
2023-03-18T22:37:33.968Z,3.80
2023-03-18T22:40:01.293Z,3.45
2023-03-18T22:42:28.106Z,3.23
2023-03-18T22:44:54.696Z,3.00
2023-03-18T22:47:23.782Z,2.38
2023-03-18T22:49:51.242Z,2.45
2023-03-18T22:52:29.018Z,2.53
2023-03-18T22:55:10.656Z,2.88
2023-03-18T22:57:37.168Z,3.38
2023-03-18T23:00:10.863Z,3.17
2023-03-18T23:02:37.445Z,2.45
2023-03-18T23:05:04.267Z,2.58
2023-03-18T23:07:32.780Z,2.55
2023-03-18T23:10:01.372Z,2.45
2023-03-18T23:12:30.265Z,2.60
2023-03-18T23:14:56.955Z,2.30
2023-03-18T23:17:26.187Z,2.50
2023-03-18T23:19:53.767Z,3.10
2023-03-18T23:22:31.956Z,2.70
2023-03-18T23:24:58.861Z,3.80
2023-03-18T23:27:26.945Z,3.30
2023-03-18T23:29:54.792Z,3.08
2023-03-18T23:32:22.713Z,3.38
2023-03-18T23:37:47.482Z,3.00
2023-03-18T23:40:14.301Z,3.75
2023-03-18T23:42:40.952Z,3.67
2023-03-18T23:45:08.591Z,3.15
2023-03-18T23:47:35.206Z,3.92
2023-03-18T23:50:01.724Z,2.97
2023-03-18T23:52:28.250Z,3.00
2023-03-18T23:54:54.817Z,4.03
2023-03-18T23:57:21.285Z,3.33
2023-03-18T23:59:47.753Z,3.88
